Dades meteomassalio
Diari Summary for Diciembre 4, 2017 Units:  Metric    English   Both
« Previous Day
Next Day »
Diari Semanal Mensual Anual Personalitzat
  Maxima: Minima: Mijana:
Temperatura: -17.8 °C -19.6 °C -16 °C
Rosada: -17.8 °C -21.7 °C -18.2 °C
Humitat: Humidity % 61 % 76 %
Velocitat del vent: 0 km/h 0 km/h 16.4 km/h
Racha vent: 0 km/h - -
Vent:- - WNW
Pressio: 0 hPa 35024.8 hPa -
Pluja: 0 mm    
Historical Graphs
 
 
Tabular Data for Diciembre 4, 2017
Time Temperature Dew Point Pressure Wind Wind Speed Wind Gust Humidity Rainfall Rate (Hourly) solar Conditions
-17.8 °C -17.8 °C 0 hPa Calm     Humidity % 0 mm SolarRadiationWatts/m^2 W/m2 Conditions
00:02 -19.3 °C -21.6 °C 35024.8 hPa West 26.9 km/h 26.9 km/h 74 % 0 mm 0.0 W/m2 CLR
00:03 -19.3 °C -21.6 °C 35024.8 hPa West 20.9 km/h 20.9 km/h 74 % 0 mm 0.0 W/m2 CLR
00:08 -19.3 °C -21.6 °C 35024.8 hPa WNW 17.9 km/h 17.9 km/h 74 % 0 mm 0.0 W/m2 CLR
00:13 -19.3 °C -21.6 °C 35024.8 hPa West 20.9 km/h 20.9 km/h 74 % 0 mm 0.0 W/m2 CLR
00:18 -19.3 °C -21.4 °C 35024.8 hPa WSW 26.9 km/h 26.9 km/h 75 % 0 mm 0.0 W/m2 CLR
00:23 -19.3 °C -21.4 °C 35024.8 hPa West 20.9 km/h 20.9 km/h 75 % 0 mm 0.0 W/m2 CLR
00:28 -19.3 °C -21.3 °C 35024.8 hPa West 17.9 km/h 17.9 km/h 76 % 0 mm 0.0 W/m2 CLR
00:33 -19.3 °C -21.3 °C 35024.8 hPa West 20.9 km/h 20.9 km/h 77 % 0 mm 0.0 W/m2 CLR
00:38 -19.3 °C -21.3 °C 35024.8 hPa WSW 11.9 km/h 11.9 km/h 77 % 0 mm 0.0 W/m2 CLR
00:43 -19.6 °C -21.7 °C 35024.8 hPa WSW 12.9 km/h 12.9 km/h 75 % 0 mm 0.0 W/m2 CLR
00:48 -19.6 °C -21.6 °C 35024.8 hPa WSW 20.9 km/h 20.9 km/h 76 % 0 mm 0.0 W/m2 CLR
00:53 -19.6 °C -21.3 °C 35024.8 hPa West 29.8 km/h 29.8 km/h 80 % 0 mm 0.0 W/m2 CLR
00:58 -19.6 °C -21.3 °C 35024.8 hPa WNW 23.8 km/h 23.8 km/h 80 % 0 mm 0.0 W/m2 CLR
01:03 -19.3 °C -21.2 °C 35038.3 hPa WNW 23.8 km/h 23.8 km/h 78 % 0 mm 0.0 W/m2 CLR
01:08 -19.3 °C -21.3 °C 35038.3 hPa West 15 km/h 15 km/h 77 % 0 mm 0.0 W/m2 CLR
01:13 -19.6 °C -21.6 °C 35038.3 hPa West 9 km/h   76 % 0 mm 0.0 W/m2 CLR
01:18 -19.6 °C -21.7 °C 35024.8 hPa Calm     75 % 0 mm 0.0 W/m2 CLR
01:19 -19.6 °C -21.6 °C 35024.8 hPa Calm     76 % 0 mm 0.0 W/m2 CLR
01:24 -19.6 °C -21.4 °C 35024.8 hPa Calm     78 % 0 mm 0.0 W/m2 CLR
01:29 -19.6 °C -21.3 °C 35024.8 hPa Calm     79 % 0 mm 0.0 W/m2 CLR
01:34 -19.6 °C -21.3 °C 35038.3 hPa Calm     80 % 0 mm 0.0 W/m2 CLR
01:39 -19.6 °C -21.3 °C 35038.3 hPa Calm     79 % 0 mm 0.0 W/m2 CLR
01:44 -19.6 °C -21.4 °C 35038.3 hPa Calm     78 % 0 mm 0.0 W/m2 CLR
01:49 -19.6 °C -21.3 °C 35038.3 hPa Calm     80 % 0 mm 0.0 W/m2 CLR
01:54 -19.6 °C -21 °C 35038.3 hPa West 15.6 km/h 15.6 km/h 83 % 0 mm 0.0 W/m2 CLR
01:59 -19.6 °C -21.1 °C 35038.3 hPa West 9 km/h 9 km/h 82 % 0 mm 0.0 W/m2 CLR
02:04 -19.6 °C -21.1 °C 35038.3 hPa West 17.9 km/h 17.9 km/h 82 % 0 mm 0.0 W/m2 CLR
02:09 -19.6 °C -21.2 °C 35038.3 hPa West 23.8 km/h 23.8 km/h 81 % 0 mm 0.0 W/m2 CLR
02:14 -19.6 °C -21.3 °C 35038.3 hPa WNW 15 km/h 15 km/h 80 % 0 mm 0.0 W/m2 CLR
02:19 -19.3 °C -21.1 °C 35038.3 hPa West 11.9 km/h 11.9 km/h 79 % 0 mm 0.0 W/m2 CLR
02:24 -19.3 °C -21.1 °C 35038.3 hPa West 9 km/h 9 km/h 79 % 0 mm 0.0 W/m2 CLR
02:29 -19.3 °C -21.1 °C 35038.3 hPa West 6 km/h   79 % 0 mm 0.0 W/m2 CLR
02:34 -19.3 °C -21.2 °C 35038.3 hPa Calm     78 % 0 mm 0.0 W/m2 CLR
02:39 -19.3 °C -20.9 °C 35038.3 hPa Calm     80 % 0 mm 0.0 W/m2 CLR
02:44 -19.3 °C -20.9 °C 35038.3 hPa Calm     80 % 0 mm 0.0 W/m2 CLR
02:49 -19.3 °C -20.8 °C 35038.3 hPa WNW 11.9 km/h 11.9 km/h 82 % 0 mm 0.0 W/m2 CLR
02:54 -19.6 °C -21.3 °C 35038.3 hPa WNW 12.9 km/h 12.9 km/h 80 % 0 mm 0.0 W/m2 CLR
02:59 -19.6 °C -21.3 °C 35038.3 hPa West 9 km/h 9 km/h 80 % 0 mm 0.0 W/m2 CLR
03:04 -19.6 °C -21.3 °C 35038.3 hPa Calm     79 % 0 mm 0.0 W/m2 CLR
03:09 -19.6 °C -21.3 °C 35038.3 hPa Calm     79 % 0 mm 0.0 W/m2 CLR
03:14 -19.6 °C -21.3 °C 35038.3 hPa Calm     80 % 0 mm 0.0 W/m2 CLR
03:19 -19.6 °C -21.3 °C 35048.5 hPa Calm     80 % 0 mm 0.0 W/m2 CLR
03:24 -19.6 °C -21.3 °C 35038.3 hPa Calm     79 % 0 mm 0.0 W/m2 CLR
03:29 -19.3 °C -20.9 °C 35038.3 hPa Calm   2.1 km/h 80 % 0 mm 0.0 W/m2 CLR
03:34 -19.3 °C -20.9 °C 35038.3 hPa Calm     81 % 0 mm 0.0 W/m2 CLR
03:39 -19.3 °C -20.9 °C 35038.3 hPa WNW 11.9 km/h 11.9 km/h 81 % 0 mm 0.0 W/m2 CLR
03:44 -19 °C -20.6 °C 35038.3 hPa WNW 20.9 km/h 20.9 km/h 81 % 0 mm 0.0 W/m2 CLR
03:49 -19 °C -20.7 °C 35038.3 hPa West 20.9 km/h 20.9 km/h 80 % 0 mm 0.0 W/m2 CLR
03:54 -19 °C -20.7 °C 35038.3 hPa NW 20.9 km/h 20.9 km/h 80 % 0 mm 0.0 W/m2 CLR
03:59 -19 °C -20.7 °C 35038.3 hPa NNW 23.3 km/h 23.3 km/h 80 % 0 mm 0.0 W/m2 CLR
04:04 -19 °C -20.7 °C 35038.3 hPa NW 20.8 km/h 20.8 km/h 80 % 0 mm 0.0 W/m2 CLR
04:09 -18.7 °C -20.4 °C 35038.3 hPa WNW 29.8 km/h 29.8 km/h 80 % 0 mm 0.0 W/m2 CLR
04:16 -18.7 °C -20.4 °C 35038.3 hPa WNW 17.9 km/h 17.9 km/h 80 % 0 mm 0.0 W/m2 CLR
04:19 -18.7 °C -20.4 °C 35038.3 hPa NW 20.9 km/h 20.9 km/h 80 % 0 mm 0.0 W/m2 CLR
04:21 -18.7 °C -20.4 °C 35038.3 hPa NW 29.8 km/h 29.8 km/h 80 % 0 mm 0.0 W/m2 CLR
04:22 -18.7 °C -20.4 °C 35038.3 hPa NW 29.8 km/h 29.8 km/h 80 % 0 mm 0.0 W/m2 CLR
04:23 -18.7 °C -20.4 °C 35038.3 hPa WNW 29.8 km/h 29.8 km/h 80 % 0 mm 0.0 W/m2 CLR
04:27 -18.4 °C -20.1 °C 35038.3 hPa WNW 20.9 km/h 20.9 km/h 80 % 0 mm 0.0 W/m2 CLR
04:29 -18.1 °C -19.8 °C 35038.3 hPa WNW 23.8 km/h 23.8 km/h 80 % 0 mm 0.0 W/m2 CLR
04:32 -17.8 °C -19.5 °C 35038.3 hPa WNW 23.8 km/h 23.8 km/h 80 % 0 mm 0.0 W/m2 CLR
04:37 -17.4 °C -19.2 °C 35038.3 hPa Calm     80 % 0 mm 0.0 W/m2 CLR
04:39 -17.4 °C -19.2 °C 35038.3 hPa WNW 18.2 km/h 18.2 km/h 80 % 0 mm 0.0 W/m2 CLR
04:42 -17.2 °C -18.8 °C 35038.3 hPa West 26.9 km/h 26.9 km/h 81 % 0 mm 0.0 W/m2 CLR
04:47 -16.6 °C -18.2 °C 35048.5 hPa NW 23.8 km/h 23.8 km/h 81 % 0 mm 0.0 W/m2 CLR
04:52 -15.9 °C -17.7 °C 35048.5 hPa WNW 23.8 km/h 23.8 km/h 80 % 0 mm 0.0 W/m2 CLR
04:57 -15.3 °C -17.1 °C 35048.5 hPa WNW 26.9 km/h 26.9 km/h 80 % 0 mm 0.0 W/m2 CLR
05:02 -15.3 °C -17.1 °C 35048.5 hPa NW 29.8 km/h 29.8 km/h 80 % 0 mm 0.0 W/m2 CLR
05:07 -15 °C -16.8 °C 35048.5 hPa WNW 35.7 km/h 35.7 km/h 80 % 0 mm 0.0 W/m2 CLR
05:12 -15 °C -16.8 °C 35048.5 hPa West 29.8 km/h 29.8 km/h 80 % 0 mm 0.0 W/m2 CLR
05:17 -14.7 °C -16.4 °C 35048.5 hPa West 23.8 km/h 23.8 km/h 80 % 0 mm 0.0 W/m2 CLR
05:22 -14.7 °C -16.4 °C 35048.5 hPa NW 28.5 km/h 28.5 km/h 80 % 0 mm 0.0 W/m2 CLR
05:27 -15 °C -16.8 °C 35038.3 hPa WNW 25.9 km/h 25.9 km/h 80 % 0 mm 0.0 W/m2 CLR
05:32 -14.7 °C -16.4 °C 35048.5 hPa WNW 28.5 km/h 28.5 km/h 80 % 0 mm 0.0 W/m2 CLR
05:37 -14.7 °C -16.4 °C 35048.5 hPa NW 23.8 km/h 23.8 km/h 80 % 0 mm 0.0 W/m2 CLR
05:42 -14.7 °C -16.4 °C 35048.5 hPa WNW 23.8 km/h 23.8 km/h 80 % 0 mm 0.0 W/m2 CLR
05:47 -14.7 °C -16.4 °C 35048.5 hPa WNW 15 km/h 15 km/h 80 % 0 mm 0.0 W/m2 CLR
05:52 -14.7 °C -16.3 °C 35048.5 hPa WNW 26.9 km/h 26.9 km/h 81 % 0 mm 0.0 W/m2 CLR
05:57 -15 °C -16.7 °C 35058.6 hPa WNW 20.9 km/h 20.9 km/h 81 % 0 mm 0.0 W/m2 CLR
06:02 -15 °C -16.7 °C 35058.6 hPa NW 28.5 km/h 28.5 km/h 81 % 0 mm 0.0 W/m2 CLR
06:03 -15 °C -16.7 °C 35058.6 hPa WNW 29.8 km/h 29.8 km/h 81 % 0 mm 0.0 W/m2 CLR
06:08 -15 °C -16.7 °C 35058.6 hPa NW 23.8 km/h 23.8 km/h 81 % 0 mm 0.0 W/m2 CLR
06:13 -15 °C -16.7 °C 35058.6 hPa NW 20.9 km/h 20.9 km/h 81 % 0 mm 0.0 W/m2 CLR
06:18 -15 °C -16.7 °C 35058.6 hPa NNW 23.8 km/h 23.8 km/h 81 % 0 mm 0.0 W/m2 CLR
06:23 -15 °C -16.7 °C 35058.6 hPa NW 15 km/h 15 km/h 81 % 0 mm 0.0 W/m2 CLR
06:28 -15 °C -16.6 °C 35058.6 hPa WNW 18.2 km/h 18.2 km/h 82 % 0 mm 0.0 W/m2 CLR
06:29 -15 °C -16.6 °C 35058.6 hPa WNW 18.2 km/h 18.2 km/h 82 % 0 mm 0.0 W/m2 CLR
06:34 -15 °C -16.7 °C 35058.6 hPa NW 20.9 km/h 20.9 km/h 81 % 0 mm 0.0 W/m2 CLR
06:39 -15 °C -16.7 °C 35072.2 hPa NW 20.9 km/h 20.9 km/h 81 % 0 mm 0.0 W/m2 CLR
06:44 -15 °C -16.7 °C 35072.2 hPa NNW 17.9 km/h 17.9 km/h 81 % 0 mm 0.0 W/m2 CLR
06:49 -15 °C -16.7 °C 35072.2 hPa NW 11.9 km/h 11.9 km/h 81 % 0 mm 0.0 W/m2 CLR
06:54 -15 °C -16.7 °C 35072.2 hPa NW 15 km/h 15 km/h 81 % 0 mm 0.0 W/m2 CLR
06:59 -15 °C -16.7 °C 35072.2 hPa NW 11.9 km/h 11.9 km/h 81 % 0 mm 0.0 W/m2 CLR
07:04 -15 °C -16.7 °C 35072.2 hPa Calm     81 % 0 mm 0.0 W/m2 CLR
07:09 -15 °C -16.7 °C 35072.2 hPa WNW 15 km/h 15 km/h 81 % 0 mm 0.0 W/m2 CLR
07:14 -15 °C -16.7 °C 35072.2 hPa NW 17.9 km/h 17.9 km/h 81 % 0 mm 0.0 W/m2 CLR
07:19 -15.3 °C -17 °C 35082.3 hPa WNW 9 km/h 9 km/h 81 % 0 mm 0.0 W/m2 CLR
07:24 -15.3 °C -17 °C 35082.3 hPa WNW 11.9 km/h 11.9 km/h 81 % 0 mm 0.0 W/m2 CLR
07:29 -15.3 °C -17 °C 35082.3 hPa WNW 12.9 km/h 12.9 km/h 81 % 0 mm 0.0 W/m2 CLR
07:34 -15.3 °C -17 °C 35082.3 hPa WNW 15 km/h 15 km/h 81 % 0 mm 0.0 W/m2 CLR
07:39 -15.3 °C -17 °C 35082.3 hPa WNW 20.9 km/h 20.9 km/h 81 % 0 mm 0.0 W/m2 CLR
07:44 -15.3 °C -17 °C 35082.3 hPa NW 17.9 km/h 17.9 km/h 81 % 0 mm 0.0 W/m2 CLR
07:49 -15.3 °C -17 °C 35082.3 hPa WNW 23.8 km/h 23.8 km/h 81 % 0 mm 0.0 W/m2 CLR
07:54 -15.3 °C -17 °C 35082.3 hPa NW 20.8 km/h 20.8 km/h 81 % 0 mm 0.0 W/m2 CLR
07:59 -15.3 °C -17 °C 35095.9 hPa NW 23.8 km/h 23.8 km/h 81 % 0 mm 0.0 W/m2 CLR
08:04 -15.6 °C -17.2 °C 35095.9 hPa West 29.8 km/h 29.8 km/h 82 % 0 mm 0.0 W/m2 OVC
08:09 -15.6 °C -17.2 °C 35095.9 hPa WNW 11.9 km/h   82 % 0 mm 5.0 W/m2 OVC
08:14 -15.9 °C -17.4 °C 35095.9 hPa WNW 20.8 km/h 20.8 km/h 82 % 0 mm 5.0 W/m2 OVC
08:19 -16.2 °C -17.7 °C 35095.9 hPa WNW 15 km/h 15 km/h 83 % 0 mm 9.0 W/m2 BKN
08:24 -16.6 °C -18.1 °C 35095.9 hPa WNW 15.6 km/h 15.6 km/h 82 % 0 mm 12.0 W/m2 BKN
08:29 -16.6 °C -18.1 °C 35106 hPa WNW 10.3 km/h 10.3 km/h 82 % 0 mm 14.0 W/m2 BKN
08:34 -16.8 °C -18.3 °C 35106 hPa Calm     83 % 0 mm 16.0 W/m2 BKN
08:39 -16.8 °C -18.3 °C 35106 hPa Calm     83 % 0 mm 18.0 W/m2 BKN
08:44 -16.8 °C -18.3 °C 35116.2 hPa Calm     83 % 0 mm 26.0 W/m2 BKN
08:49 -16.6 °C -18 °C 35116.2 hPa Calm     83 % 0 mm 30.0 W/m2 BKN
08:54 -16.6 °C -17.9 °C 35116.2 hPa NW 10.3 km/h 10.3 km/h 84 % 0 mm 33.0 W/m2 BKN
08:59 -16.2 °C -17.6 °C 35116.2 hPa Calm     84 % 0 mm 37.0 W/m2 BKN
09:04 -16.2 °C -17.7 °C 35116.2 hPa NW 17.9 km/h 17.9 km/h 83 % 0 mm 39.0 W/m2 BKN
09:09 -15.9 °C -17.4 °C 35116.2 hPa WNW 18.2 km/h 18.2 km/h 83 % 0 mm 44.0 W/m2 BKN
09:14 -15.6 °C -17.2 °C 35116.2 hPa NW 26.9 km/h 26.9 km/h 82 % 0 mm 44.0 W/m2 BKN
09:19 -15.3 °C -16.9 °C 35129.8 hPa NW 26.9 km/h 26.9 km/h 82 % 0 mm 51.0 W/m2 SCT
09:24 -15 °C -16.7 °C 35129.8 hPa WNW 17.9 km/h 17.9 km/h 81 % 0 mm 60.0 W/m2 SCT
09:29 -14.7 °C -16.3 °C 35129.8 hPa NW 17.9 km/h 17.9 km/h 81 % 0 mm 72.0 W/m2 SCT
09:35 -14.4 °C -16.2 °C 35129.8 hPa WNW 23.8 km/h 23.8 km/h 80 % 0 mm 74.0 W/m2 FEW
09:40 -14.4 °C -16.2 °C 35129.8 hPa WNW 17.9 km/h 17.9 km/h 80 % 0 mm 77.0 W/m2 FEW
09:45 -14.1 °C -15.9 °C 35129.8 hPa WNW 31.1 km/h 31.1 km/h 79 % 0 mm 104.0 W/m2 FEW
09:50 -14.1 °C -15.9 °C 35129.8 hPa NW 25.9 km/h 25.9 km/h 79 % 0 mm 113.0 W/m2 CLR
09:55 -13.8 °C -15.7 °C 35139.9 hPa NW 29.8 km/h 29.8 km/h 78 % 0 mm 95.0 W/m2 CLR
10:00 -13.8 °C -15.7 °C 35139.9 hPa WNW 32.8 km/h 32.8 km/h 78 % 0 mm 102.0 W/m2 CLR
10:05 -13.8 °C -15.7 °C 35139.9 hPa NNW 50.7 km/h 50.7 km/h 78 % 0 mm 104.0 W/m2 CLR
10:10 -13.8 °C -15.7 °C 35139.9 hPa NW 38.8 km/h 38.8 km/h 78 % 0 mm 116.0 W/m2 CLR
10:15 -13.8 °C -15.7 °C 35139.9 hPa NNW 29.8 km/h 29.8 km/h 78 % 0 mm 113.0 W/m2 CLR
10:20 -13.8 °C -15.7 °C 35139.9 hPa NW 38.8 km/h 38.8 km/h 78 % 0 mm 104.0 W/m2 CLR
10:25 -13.4 °C -15.6 °C 35139.9 hPa WNW 35.7 km/h 35.7 km/h 77 % 0 mm 132.0 W/m2 CLR
10:30 -13.4 °C -15.6 °C 35139.9 hPa WNW 38.8 km/h 38.8 km/h 77 % 0 mm 118.0 W/m2 CLR
10:35 -13.4 °C -15.6 °C 35150.1 hPa NW 17.9 km/h 17.9 km/h 77 % 0 mm 130.0 W/m2 CLR
10:40 -13.4 °C -15.7 °C 35150.1 hPa NNW 35.7 km/h 35.7 km/h 76 % 0 mm 144.0 W/m2 CLR
10:45 -13.2 °C -15.4 °C 35150.1 hPa WNW 15 km/h 15 km/h 76 % 0 mm 153.0 W/m2 CLR
10:50 -13.2 °C -15.4 °C 35150.1 hPa WNW 26.9 km/h 26.9 km/h 75 % 0 mm 190.0 W/m2 CLR
11:00 -13.2 °C -15.6 °C 35150.1 hPa NW 35.7 km/h 35.7 km/h 74 % 0 mm 148.0 W/m2 CLR
11:05 -13.2 °C -15.7 °C 35150.1 hPa NW 29.8 km/h 29.8 km/h 73 % 0 mm 163.0 W/m2 CLR
11:10 -12.8 °C -15.4 °C 35163.6 hPa North 44.7 km/h 44.7 km/h 73 % 0 mm 113.0 W/m2 CLR
11:15 -13.2 °C -15.7 °C 35163.6 hPa NW 33.6 km/h 33.6 km/h 73 % 0 mm 83.0 W/m2 CLR
11:20 -13.2 °C -15.7 °C 35163.6 hPa NW 38.8 km/h 38.8 km/h 73 % 0 mm 114.0 W/m2 CLR
11:25 -13.2 °C -15.6 °C 35163.6 hPa NW 41.7 km/h 41.7 km/h 74 % 0 mm 114.0 W/m2 CLR
11:30 -13.2 °C -15.7 °C 35163.6 hPa NW 35.7 km/h 35.7 km/h 73 % 0 mm 128.0 W/m2 CLR
11:35 -13.2 °C -15.7 °C 35163.6 hPa NW 35.7 km/h 35.7 km/h 73 % 0 mm 125.0 W/m2 CLR
11:40 -13.2 °C -15.7 °C 35163.6 hPa NW 35.7 km/h 35.7 km/h 73 % 0 mm 142.0 W/m2 CLR
11:45 -13.2 °C -15.7 °C 35163.6 hPa NW 20.9 km/h 20.9 km/h 73 % 0 mm 144.0 W/m2 CLR
11:50 -12.8 °C -15.5 °C 35150.1 hPa NW 36.2 km/h 36.2 km/h 72 % 0 mm 192.0 W/m2 CLR
11:55 -12.8 °C -15.6 °C 35150.1 hPa NNW 35.7 km/h 35.7 km/h 71 % 0 mm 200.0 W/m2 CLR
12:00 -12.6 °C -15.3 °C 35150.1 hPa NW 44.7 km/h 44.7 km/h 71 % 0 mm 200.0 W/m2 CLR
12:05 -12.6 °C -15.4 °C 35150.1 hPa NNW 35.7 km/h 35.7 km/h 70 % 0 mm 190.0 W/m2 CLR
12:10 -12.6 °C -15.5 °C 35150.1 hPa NW 26.9 km/h 26.9 km/h 69 % 0 mm 206.0 W/m2 CLR
12:15 -12.6 °C -15.5 °C 35150.1 hPa NW 41.7 km/h 41.7 km/h 69 % 0 mm 223.0 W/m2 CLR
12:20 -12.6 °C -15.4 °C 35150.1 hPa NW 38.8 km/h 38.8 km/h 70 % 0 mm 207.0 W/m2 CLR
12:25 -12.6 °C -15.5 °C 35150.1 hPa North 32.8 km/h 32.8 km/h 69 % 0 mm 218.0 W/m2 CLR
12:30 -12.2 °C -15.2 °C 35139.9 hPa NNW 35.7 km/h 35.7 km/h 69 % 0 mm 206.0 W/m2 CLR
12:40 -12.2 °C -15.4 °C 35139.9 hPa North 29.8 km/h 29.8 km/h 68 % 0 mm 214.0 W/m2 CLR
12:45 -12.2 °C -15.4 °C 35139.9 hPa NW 35.7 km/h 35.7 km/h 68 % 0 mm 229.0 W/m2 CLR
12:50 -12.2 °C -15.4 °C 35139.9 hPa NNW 29.8 km/h 29.8 km/h 67 % 0 mm 185.0 W/m2 CLR
12:55 -12.2 °C -15.4 °C 35139.9 hPa NNW 33.6 km/h 33.6 km/h 67 % 0 mm 232.0 W/m2 CLR
13:00 -12.2 °C -15.4 °C 35139.9 hPa NW 35.7 km/h 35.7 km/h 67 % 0 mm 225.0 W/m2 CLR
13:05 -11.9 °C -15.3 °C 35139.9 hPa NNW 33.6 km/h 33.6 km/h 66 % 0 mm 209.0 W/m2 CLR
13:10 -11.9 °C -15.3 °C 35139.9 hPa WNW 26.9 km/h 26.9 km/h 66 % 0 mm 193.0 W/m2 CLR
13:15 -12.2 °C -15.6 °C 35139.9 hPa NW 32.8 km/h 32.8 km/h 66 % 0 mm 236.0 W/m2 CLR
13:20 -11.9 °C -15.4 °C 35139.9 hPa NW 44.7 km/h 44.7 km/h 65 % 0 mm 313.0 W/m2 CLR
13:25 -11.6 °C -15.1 °C 35139.9 hPa NW 32.8 km/h 32.8 km/h 65 % 0 mm 246.0 W/m2 CLR
13:30 -11.9 °C -15.4 °C 35129.8 hPa NW 38.8 km/h 38.8 km/h 65 % 0 mm 214.0 W/m2 CLR
13:35 -11.9 °C -15.6 °C 35129.8 hPa NNW 26.9 km/h 26.9 km/h 64 % 0 mm 265.0 W/m2 CLR
13:40 -11.9 °C -15.4 °C 35129.8 hPa NNW 29.8 km/h 29.8 km/h 65 % 0 mm 202.0 W/m2 CLR
13:45 -11.9 °C -15.4 °C 35129.8 hPa North 32.8 km/h 32.8 km/h 65 % 0 mm 167.0 W/m2 CLR
13:50 -11.9 °C -15.4 °C 35139.9 hPa NNW 38.8 km/h 38.8 km/h 65 % 0 mm 153.0 W/m2 CLR
13:55 -11.9 °C -15.4 °C 35139.9 hPa NNW 38.8 km/h 38.8 km/h 65 % 0 mm 186.0 W/m2 CLR
14:00 -11.9 °C -15.3 °C 35129.8 hPa NNW 35.7 km/h 35.7 km/h 66 % 0 mm 190.0 W/m2 CLR
14:05 -11.9 °C -15.3 °C 35129.8 hPa NW 26.9 km/h 26.9 km/h 66 % 0 mm 179.0 W/m2 CLR
14:10 -11.9 °C -15.3 °C 35129.8 hPa NNW 35.7 km/h 35.7 km/h 66 % 0 mm 181.0 W/m2 CLR
14:15 -11.9 °C -15.3 °C 35129.8 hPa NW 20.9 km/h 20.9 km/h 66 % 0 mm 190.0 W/m2 CLR
14:20 -11.9 °C -15.3 °C 35129.8 hPa North 26.9 km/h 26.9 km/h 66 % 0 mm 229.0 W/m2 CLR
14:26 -11.9 °C -15.4 °C 35129.8 hPa North 33.6 km/h 33.6 km/h 65 % 0 mm 213.0 W/m2 CLR
14:31 -11.6 °C -15.1 °C 35129.8 hPa NW 23.8 km/h 23.8 km/h 65 % 0 mm 183.0 W/m2 CLR
14:36 -11.6 °C -15.2 °C 35129.8 hPa NW 23.8 km/h 23.8 km/h 64 % 0 mm 171.0 W/m2 CLR
14:41 -11.9 °C -15.6 °C 35129.8 hPa WNW 26.9 km/h 26.9 km/h 64 % 0 mm 127.0 W/m2 CLR
14:46 -11.9 °C -15.4 °C 35129.8 hPa WNW 29.8 km/h 29.8 km/h 65 % 0 mm 121.0 W/m2 CLR
14:51 -11.9 °C -15.3 °C 35116.2 hPa North 26.9 km/h 26.9 km/h 66 % 0 mm 410.0 W/m2 CLR
14:56 -11.9 °C -15.4 °C 35116.2 hPa NNW 32.8 km/h 32.8 km/h 65 % 0 mm 380.0 W/m2 CLR
15:01 -11.6 °C -15.2 °C 35116.2 hPa NW 29.8 km/h 29.8 km/h 64 % 0 mm 339.0 W/m2 CLR
15:06 -11.6 °C -15.4 °C 35116.2 hPa NW 29.8 km/h 29.8 km/h 63 % 0 mm 323.0 W/m2 CLR
15:11 -11.6 °C -15.4 °C 35116.2 hPa NW 32.8 km/h 32.8 km/h 63 % 0 mm 304.0 W/m2 CLR
15:16 -11.6 °C -15.4 °C 35116.2 hPa WNW 31.1 km/h 31.1 km/h 63 % 0 mm 306.0 W/m2 CLR
15:21 -11.6 °C -15.4 °C 35116.2 hPa NNW 29.8 km/h 29.8 km/h 63 % 0 mm 313.0 W/m2 CLR
15:26 -11.6 °C -15.5 °C 35116.2 hPa NW 32.8 km/h 32.8 km/h 62 % 0 mm 271.0 W/m2 CLR
15:31 -11.6 °C -15.6 °C 35116.2 hPa NW 26.9 km/h 26.9 km/h 61 % 0 mm 258.0 W/m2 CLR
15:36 -11.6 °C -15.5 °C 35116.2 hPa WNW 23.8 km/h 23.8 km/h 62 % 0 mm 234.0 W/m2 CLR
15:41 -11.6 °C -15.5 °C 35116.2 hPa WNW 23.8 km/h 23.8 km/h 62 % 0 mm 230.0 W/m2 CLR
15:46 -11.6 °C -15.5 °C 35116.2 hPa WNW 26.9 km/h 26.9 km/h 62 % 0 mm 213.0 W/m2 CLR
15:51 -11.9 °C -15.8 °C 35116.2 hPa WNW 20.9 km/h 20.9 km/h 62 % 0 mm 200.0 W/m2 CLR
15:56 -11.9 °C -15.8 °C 35116.2 hPa WNW 23.8 km/h 23.8 km/h 62 % 0 mm 186.0 W/m2 CLR
16:01 -11.9 °C -15.9 °C 35116.2 hPa NW 29.8 km/h 29.8 km/h 61 % 0 mm 172.0 W/m2 CLR
16:06 -12.2 °C -16.2 °C 35116.2 hPa NW 29.8 km/h 29.8 km/h 61 % 0 mm 156.0 W/m2 CLR
16:11 -12.2 °C -16.2 °C 35116.2 hPa WNW 29.8 km/h 29.8 km/h 61 % 0 mm 144.0 W/m2 CLR
16:16 -12.2 °C -16.2 °C 35116.2 hPa NNW 28.5 km/h 28.5 km/h 61 % 0 mm 130.0 W/m2 CLR
16:21 -12.2 °C -16.2 °C 35116.2 hPa NNW 26.9 km/h 26.9 km/h 61 % 0 mm 118.0 W/m2 CLR
16:26 -12.2 °C -16.2 °C 35116.2 hPa NW 23.8 km/h 23.8 km/h 61 % 0 mm 102.0 W/m2 CLR
16:31 -12.2 °C -16.2 °C 35116.2 hPa NNW 18.2 km/h 18.2 km/h 61 % 0 mm 90.0 W/m2 CLR
16:36 -12.2 °C -16.2 °C 35116.2 hPa NW 23.8 km/h 23.8 km/h 61 % 0 mm 79.0 W/m2 FEW
16:41 -12.6 °C -16.5 °C 35116.2 hPa NW 12.9 km/h 12.9 km/h 61 % 0 mm 69.0 W/m2 FEW
16:46 -12.6 °C -16.5 °C 35116.2 hPa NW 15 km/h 15 km/h 61 % 0 mm 53.0 W/m2 SCT
16:51 -12.6 °C -16.5 °C 35116.2 hPa NW 20.9 km/h 20.9 km/h 61 % 0 mm 40.0 W/m2 BKN
16:56 -12.6 °C -16.5 °C 35116.2 hPa NW 17.9 km/h 17.9 km/h 61 % 0 mm 32.0 W/m2 BKN
17:01 -12.6 °C -16.5 °C 35116.2 hPa NNW 11.9 km/h 11.9 km/h 61 % 0 mm 23.0 W/m2 BKN
17:11 -13.2 °C -16.8 °C 35116.2 hPa WNW 17.9 km/h 17.9 km/h 63 % 0 mm 12.0 W/m2 BKN
17:16 -13.4 °C -17.1 °C 35116.2 hPa NW 9 km/h 9 km/h 63 % 0 mm 11.0 W/m2 BKN
17:21 -13.8 °C -17.3 °C 35116.2 hPa Calm     64 % 0 mm 9.0 W/m2 BKN
17:26 -14.1 °C -17.6 °C 35129.8 hPa Calm     64 % 0 mm 7.0 W/m2 BKN
17:27 -14.1 °C -17.6 °C 35129.8 hPa Calm     64 % 0 mm 7.0 W/m2 BKN
17:32 -14.4 °C -17.8 °C 35116.2 hPa Calm     65 % 0 mm 5.0 W/m2 OVC
17:37 -14.7 °C -18.1 °C 35129.8 hPa Calm     65 % 0 mm 0.0 W/m2 OVC
17:42 -15 °C -18.2 °C 35116.2 hPa Calm     66 % 0 mm 0.0 W/m2 CLR
17:47 -15 °C -18.1 °C 35116.2 hPa Calm     67 % 0 mm 0.0 W/m2 CLR
17:53 -15.3 °C -18.4 °C 35129.8 hPa WNW 11.9 km/h 11.9 km/h 67 % 0 mm 0.0 W/m2 CLR
17:58 -15.3 °C -18.4 °C 35129.8 hPa WNW 9 km/h   67 % 0 mm 0.0 W/m2 CLR
18:03 -15.3 °C -18.4 °C 35129.8 hPa Calm     67 % 0 mm 0.0 W/m2 CLR
18:08 -15.6 °C -18.7 °C 35129.8 hPa Calm     67 % 0 mm 0.0 W/m2 CLR
18:13 -15.9 °C -18.9 °C 35129.8 hPa Calm     68 % 0 mm 0.0 W/m2 CLR
18:18 -15.9 °C -18.9 °C 35129.8 hPa Calm     68 % 0 mm 0.0 W/m2 CLR
18:23 -15.9 °C -18.8 °C 35129.8 hPa Calm     69 % 0 mm 0.0 W/m2 CLR
18:28 -15.9 °C -18.8 °C 35129.8 hPa Calm     69 % 0 mm 0.0 W/m2 CLR
18:33 -15.9 °C -18.4 °C 35129.8 hPa Calm     72 % 0 mm 0.0 W/m2 CLR
18:38 -16.2 °C -18.7 °C 35139.9 hPa Calm     73 % 0 mm 0.0 W/m2 CLR
18:43 -16.6 °C -18.8 °C 35139.9 hPa Calm     74 % 0 mm 0.0 W/m2 CLR
18:48 -16.8 °C -19.2 °C 35139.9 hPa Calm     74 % 0 mm 0.0 W/m2 CLR
18:53 -16.8 °C -19.1 °C 35139.9 hPa Calm     75 % 0 mm 0.0 W/m2 CLR
18:58 -17.2 °C -19.3 °C 35139.9 hPa Calm     75 % 0 mm 0.0 W/m2 CLR
19:03 -17.2 °C -19.3 °C 35139.9 hPa Calm     76 % 0 mm 0.0 W/m2 CLR
19:08 -17.4 °C -19.6 °C 35139.9 hPa Calm     76 % 0 mm 0.0 W/m2 CLR
19:13 -17.4 °C -19.4 °C 35150.1 hPa Calm     77 % 0 mm 0.0 W/m2 CLR
19:18 -17.8 °C -19.8 °C 35150.1 hPa Calm     77 % 0 mm 0.0 W/m2 CLR
19:23 -17.8 °C -19.7 °C 35150.1 hPa Calm     78 % 0 mm 0.0 W/m2 CLR
19:28 -17.8 °C -19.7 °C 35150.1 hPa Calm     78 % 0 mm 0.0 W/m2 CLR
19:33 -17.8 °C -19.6 °C 35150.1 hPa Calm     79 % 0 mm 0.0 W/m2 CLR
19:38 -18.1 °C -19.9 °C 35150.1 hPa Calm     78 % 0 mm 0.0 W/m2 CLR
19:43 -18.1 °C -19.9 °C 35163.6 hPa Calm     78 % 0 mm 0.0 W/m2 CLR
19:48 -18.1 °C -19.9 °C 35163.6 hPa Calm     79 % 0 mm 0.0 W/m2 CLR
19:53 -18.1 °C -19.8 °C 35163.6 hPa Calm     80 % 0 mm 0.0 W/m2 CLR
19:58 -18.1 °C -19.8 °C 35163.6 hPa Calm     80 % 0 mm 0.0 W/m2 CLR
20:03 -18.4 °C -20.1 °C 35163.6 hPa Calm     80 % 0 mm 0.0 W/m2 CLR
20:08 -18.4 °C -20.1 °C 35163.6 hPa West 9 km/h 9 km/h 80 % 0 mm 0.0 W/m2 CLR
20:13 -18.4 °C -19.9 °C 35163.6 hPa West 10.3 km/h 10.3 km/h 81 % 0 mm 0.0 W/m2 CLR
20:18 -18.4 °C -19.9 °C 35163.6 hPa West 11.9 km/h 11.9 km/h 81 % 0 mm 0.0 W/m2 CLR
20:23 -18.4 °C -19.9 °C 35173.8 hPa West 11.9 km/h 11.9 km/h 81 % 0 mm 0.0 W/m2 CLR
20:28 -18.4 °C -19.9 °C 35173.8 hPa West 6 km/h 6 km/h 81 % 0 mm 0.0 W/m2 CLR
20:33 -18.7 °C -20.2 °C 35173.8 hPa West 5.1 km/h 5.1 km/h 82 % 0 mm 0.0 W/m2 CLR
20:38 -18.4 °C -19.9 °C 35173.8 hPa Calm     82 % 0 mm 0.0 W/m2 CLR
20:43 -18.4 °C -19.9 °C 35173.8 hPa Calm     81 % 0 mm 0.0 W/m2 CLR
20:48 -18.4 °C -19.9 °C 35173.8 hPa Calm     81 % 0 mm 0.0 W/m2 CLR
20:53 -18.4 °C -19.9 °C 35173.8 hPa West 11.9 km/h 11.9 km/h 81 % 0 mm 0.0 W/m2 CLR
20:58 -18.7 °C -20.3 °C 35173.8 hPa Calm     81 % 0 mm 0.0 W/m2 CLR
21:03 -18.7 °C -20.4 °C 35173.8 hPa West 12.9 km/h 12.9 km/h 80 % 0 mm 0.0 W/m2 CLR
21:08 -18.7 °C -20.3 °C 35173.8 hPa West 15 km/h 15 km/h 81 % 0 mm 0.0 W/m2 CLR
21:13 -18.7 °C -20.3 °C 35173.8 hPa West 15 km/h 15 km/h 81 % 0 mm 0.0 W/m2 CLR
21:18 -18.7 °C -20.3 °C 35173.8 hPa West 17.9 km/h 17.9 km/h 81 % 0 mm 0.0 W/m2 CLR
21:23 -18.7 °C -20.2 °C 35173.8 hPa WSW 11.9 km/h 11.9 km/h 82 % 0 mm 0.0 W/m2 CLR
21:28 -18.7 °C -20.2 °C 35173.8 hPa West 6 km/h 6 km/h 82 % 0 mm 0.0 W/m2 CLR
21:33 -18.7 °C -20.2 °C 35173.8 hPa West 6 km/h 6 km/h 82 % 0 mm 0.0 W/m2 CLR
21:38 -18.7 °C -20.3 °C 35187.3 hPa Calm     81 % 0 mm 0.0 W/m2 CLR
21:43 -18.7 °C -20.3 °C 35187.3 hPa Calm     81 % 0 mm 0.0 W/m2 CLR
21:48 -18.7 °C -20.2 °C 35187.3 hPa Calm     82 % 0 mm 0.0 W/m2 CLR
21:53 -18.7 °C -20 °C 35187.3 hPa WSW 9 km/h 9 km/h 84 % 0 mm 0.0 W/m2 CLR
21:58 -19 °C -20.3 °C 35187.3 hPa Calm     84 % 0 mm 0.0 W/m2 CLR
22:03 -19 °C -20.4 °C 35187.3 hPa WSW 3.1 km/h 3.1 km/h 83 % 0 mm 0.0 W/m2 CLR
22:08 -19 °C -20.4 °C 35187.3 hPa WSW 3.1 km/h   83 % 0 mm 0.0 W/m2 CLR
22:13 -19 °C -20.4 °C 35187.3 hPa Calm     83 % 0 mm 0.0 W/m2 CLR
22:18 -19 °C -20.3 °C 35187.3 hPa Calm     84 % 0 mm 0.0 W/m2 CLR
22:23 -19 °C -20.2 °C 35187.3 hPa Calm     85 % 0 mm 0.0 W/m2 CLR
22:28 -19 °C -20.2 °C 35187.3 hPa Calm     85 % 0 mm 0.0 W/m2 CLR
22:33 -19 °C -20.2 °C 35197.5 hPa Calm     85 % 0 mm 0.0 W/m2 CLR
22:38 -19 °C -20.2 °C 35197.5 hPa Calm     85 % 0 mm 0.0 W/m2 CLR
22:43 -19 °C -20.2 °C 35197.5 hPa Calm     85 % 0 mm 0.0 W/m2 CLR
22:48 -19 °C -20.2 °C 35197.5 hPa Calm     85 % 0 mm 0.0 W/m2 CLR
22:53 -19 °C -20.2 °C 35197.5 hPa Calm     85 % 0 mm 0.0 W/m2 CLR
22:58 -19 °C -20.1 °C 35197.5 hPa Calm     86 % 0 mm 0.0 W/m2 CLR
23:03 -19 °C -20.2 °C 35197.5 hPa WSW 6 km/h 6 km/h 85 % 0 mm 0.0 W/m2 CLR
23:08 -19 °C -20.1 °C 35197.5 hPa Calm     86 % 0 mm 0.0 W/m2 CLR
23:13 -19 °C -20.1 °C 35197.5 hPa Calm     86 % 0 mm 0.0 W/m2 CLR
23:18 -19 °C -20.2 °C 35197.5 hPa Calm     85 % 0 mm 0.0 W/m2 CLR
23:23 -19 °C -20.2 °C 35197.5 hPa Calm     85 % 0 mm 0.0 W/m2 CLR
23:28 -19 °C -20.2 °C 35197.5 hPa Calm     85 % 0 mm 0.0 W/m2 CLR
23:33 -19 °C -20.2 °C 35197.5 hPa Calm     85 % 0 mm 0.0 W/m2 CLR
23:38 -19 °C -20.2 °C 35197.5 hPa Calm     85 % 0 mm 0.0 W/m2 CLR
23:43 -19 °C -20.2 °C 35197.5 hPa Calm     85 % 0 mm 0.0 W/m2 CLR
23:48 -19 °C -20.1 °C 35207.6 hPa Calm     86 % 0 mm 0.0 W/m2 CLR
23:53 -19 °C -20.1 °C 35207.6 hPa Calm     86 % 0 mm 0.0 W/m2 CLR
23:58 -19 °C -20.1 °C 35197.5 hPa Calm     86 % 0 mm 0.0 W/m2 CLR
Lo Temps de Massalio
Compliments of Weather Underground - 1.25 mb